createdAt,value
2018-10-12T00:02:26.190Z,26.67
2018-10-12T00:04:54.292Z,22.73
2018-10-12T00:07:22.514Z,31.77
2018-10-12T00:09:50.631Z,21.33
2018-10-12T00:12:18.832Z,28.03
2018-10-12T00:14:46.935Z,28.87
2018-10-12T00:17:15.019Z,33.50
2018-10-12T00:19:43.117Z,44.37
2018-10-12T00:22:11.222Z,43.70
2018-10-12T00:24:39.323Z,26.03
2018-10-12T00:27:07.443Z,23.80
2018-10-12T00:29:35.543Z,22.63
2018-10-12T00:32:03.663Z,22.30
2018-10-12T00:34:31.787Z,29.33
2018-10-12T00:36:59.881Z,31.97
2018-10-12T00:39:28.106Z,23.03
2018-10-12T00:41:56.330Z,27.07
2018-10-12T00:44:24.559Z,25.60
2018-10-12T00:46:52.790Z,25.47
2018-10-12T00:49:20.875Z,21.90
2018-10-12T00:51:49.143Z,26.77
2018-10-12T00:54:17.229Z,35.97
2018-10-12T00:56:45.341Z,26.40
2018-10-12T00:59:13.454Z,29.90
2018-10-12T01:01:41.598Z,30.40
2018-10-12T01:04:09.809Z,25.63
2018-10-12T01:06:37.991Z,26.90
2018-10-12T01:09:06.598Z,41.40
2018-10-12T01:11:34.682Z,32.67
2018-10-12T01:14:02.855Z,31.60
2018-10-12T01:16:30.957Z,27.17
2018-10-12T01:18:59.085Z,23.27
2018-10-12T01:21:27.222Z,26.83
2018-10-12T01:23:55.301Z,24.00
2018-10-12T01:26:23.394Z,37.03
2018-10-12T01:28:54.966Z,27.23
2018-10-12T01:31:23.364Z,32.17
2018-10-12T01:33:51.517Z,27.87
2018-10-12T01:36:19.709Z,26.30
2018-10-12T01:38:47.850Z,28.37
2018-10-12T01:41:15.936Z,29.23
2018-10-12T01:43:44.342Z,34.73
2018-10-12T01:46:12.439Z,25.43
2018-10-12T01:48:40.531Z,23.13
2018-10-12T01:51:08.748Z,40.70
2018-10-12T01:53:37.034Z,32.90
2018-10-12T01:56:06.028Z,29.70
2018-10-12T01:58:34.618Z,32.30
2018-10-12T02:01:02.851Z,28.93
2018-10-12T02:03:31.148Z,31.27
2018-10-12T02:05:59.256Z,30.43
2018-10-12T02:08:27.372Z,28.67
2018-10-12T02:10:55.489Z,23.57
2018-10-12T02:13:24.839Z,29.03
2018-10-12T02:15:52.954Z,22.77
2018-10-12T02:18:21.207Z,31.07
2018-10-12T02:20:49.358Z,30.87
2018-10-12T02:23:17.458Z,33.63
2018-10-12T02:25:45.612Z,39.30
2018-10-12T02:28:13.697Z,28.97
2018-10-12T02:30:41.891Z,30.60
2018-10-12T02:33:09.970Z,28.47
2018-10-12T02:35:38.103Z,27.23
2018-10-12T02:38:06.359Z,29.97
2018-10-12T02:40:34.555Z,33.00
2018-10-12T02:43:02.674Z,31.40
2018-10-12T02:45:30.767Z,27.97
2018-10-12T02:47:58.853Z,30.27
2018-10-12T02:50:26.948Z,26.90
2018-10-12T02:52:55.081Z,29.60
2018-10-12T02:55:23.187Z,50.00
2018-10-12T02:57:51.456Z,36.83
2018-10-12T03:00:19.667Z,29.47
2018-10-12T03:02:47.814Z,33.03
2018-10-12T03:05:15.942Z,26.77
2018-10-12T03:07:44.046Z,36.40
2018-10-12T03:10:12.155Z,29.73
2018-10-12T03:12:40.257Z,28.83
2018-10-12T03:15:08.360Z,33.20
2018-10-12T03:17:36.478Z,39.63
2018-10-12T03:20:04.948Z,29.27
2018-10-12T03:22:33.035Z,44.80
2018-10-12T03:25:01.578Z,31.43
2018-10-12T03:27:29.716Z,35.67
2018-10-12T03:29:57.804Z,30.93
2018-10-12T03:32:25.975Z,29.77
2018-10-12T03:34:54.091Z,33.20
2018-10-12T03:37:22.244Z,27.13
2018-10-12T03:39:50.286Z,30.27
2018-10-12T03:42:18.378Z,35.97
2018-10-12T03:44:47.106Z,33.77
2018-10-12T03:47:15.199Z,39.87
2018-10-12T03:49:43.298Z,31.37
2018-10-12T03:52:11.574Z,31.07
2018-10-12T03:54:39.699Z,34.63
2018-10-12T03:57:08.012Z,38.33
2018-10-12T03:59:36.129Z,30.30
2018-10-12T04:02:04.772Z,28.80
2018-10-12T04:04:32.878Z,33.73
2018-10-12T04:07:00.952Z,27.50
2018-10-12T04:09:29.201Z,36.53
2018-10-12T04:11:57.308Z,34.30
2018-10-12T04:14:25.434Z,25.33
2018-10-12T04:16:53.763Z,33.53
2018-10-12T04:19:21.863Z,27.50
2018-10-12T04:21:49.951Z,33.07
2018-10-12T04:24:18.048Z,38.57
2018-10-12T04:26:46.328Z,39.10
2018-10-12T04:29:14.498Z,28.57
2018-10-12T04:31:42.610Z,29.57
2018-10-12T04:34:10.694Z,37.93
2018-10-12T04:36:38.791Z,29.40
2018-10-12T04:39:18.240Z,28.50
2018-10-12T04:41:46.345Z,28.93
2018-10-12T04:44:14.443Z,35.87
2018-10-12T04:46:43.836Z,40.60
2018-10-12T04:49:12.916Z,29.17
2018-10-12T04:51:50.059Z,33.90
2018-10-12T04:54:18.541Z,33.50
2018-10-12T04:56:47.126Z,42.90
2018-10-12T04:59:15.267Z,31.70
2018-10-12T05:01:43.471Z,33.80
2018-10-12T05:04:11.749Z,25.77
2018-10-12T05:06:39.903Z,36.60
2018-10-12T05:09:09.419Z,29.93
2018-10-12T05:11:37.728Z,30.43
2018-10-12T05:14:06.058Z,32.70
2018-10-12T05:16:34.729Z,35.20
2018-10-12T05:19:02.885Z,45.90
2018-10-12T05:21:31.011Z,35.93
2018-10-12T05:23:59.112Z,41.43
2018-10-12T05:26:27.484Z,34.50
2018-10-12T05:28:55.774Z,39.50
2018-10-12T05:31:23.886Z,30.37
2018-10-12T05:33:51.999Z,26.20
2018-10-12T05:36:20.300Z,32.30
2018-10-12T05:38:48.390Z,30.83
2018-10-12T05:41:16.586Z,32.53
2018-10-12T05:43:44.755Z,30.37
2018-10-12T05:46:13.043Z,27.33
2018-10-12T05:48:53.236Z,34.40
2018-10-12T05:51:21.461Z,27.53
2018-10-12T05:53:49.644Z,31.30
2018-10-12T05:56:20.372Z,32.63
2018-10-12T05:58:48.519Z,39.93
2018-10-12T06:01:16.668Z,34.20
2018-10-12T06:03:44.695Z,30.30
2018-10-12T06:06:12.801Z,45.47
2018-10-12T06:08:40.909Z,38.63
2018-10-12T06:11:15.517Z,32.13
2018-10-12T06:13:43.551Z,35.27
2018-10-12T06:16:12.831Z,32.30
2018-10-12T06:18:40.915Z,34.40
2018-10-12T06:21:09.026Z,35.57
2018-10-12T06:23:37.446Z,38.93
2018-10-12T06:26:05.946Z,43.97
2018-10-12T06:28:34.022Z,30.07
2018-10-12T06:31:02.144Z,34.90
2018-10-12T06:33:30.223Z,42.10
2018-10-12T06:35:58.353Z,31.40
2018-10-12T06:38:26.419Z,31.40
2018-10-12T06:40:54.653Z,38.77
2018-10-12T06:43:22.659Z,40.70
2018-10-12T06:45:50.772Z,32.13
2018-10-12T06:48:18.872Z,35.33
2018-10-12T06:50:46.955Z,39.33
2018-10-12T06:53:15.056Z,35.43
2018-10-12T06:55:43.304Z,37.53
2018-10-12T06:58:11.502Z,35.23
2018-10-12T07:00:39.622Z,41.30
2018-10-12T07:03:07.844Z,35.57
2018-10-12T07:05:35.966Z,31.17
2018-10-12T07:08:04.148Z,28.50
2018-10-12T07:10:32.266Z,26.67
2018-10-12T07:13:00.720Z,30.80
2018-10-12T07:15:28.839Z,32.77
2018-10-12T07:17:56.910Z,32.80
2018-10-12T07:20:25.008Z,36.30
2018-10-12T07:22:53.115Z,39.97
2018-10-12T07:25:21.303Z,29.13
2018-10-12T07:27:49.382Z,28.07
2018-10-12T07:30:17.502Z,26.90
2018-10-12T07:32:45.599Z,38.70
2018-10-12T07:35:13.679Z,32.20
2018-10-12T07:37:41.873Z,38.53
2018-10-12T07:40:10.493Z,27.00
2018-10-12T07:42:38.688Z,33.23
2018-10-12T07:45:07.177Z,32.47
2018-10-12T07:47:35.303Z,43.30
2018-10-12T07:50:03.446Z,32.90
2018-10-12T07:52:31.616Z,35.33
2018-10-12T07:54:59.916Z,39.73
2018-10-12T07:57:31.119Z,31.17
2018-10-12T07:59:59.855Z,37.20
2018-10-12T08:02:28.366Z,28.30
2018-10-12T08:04:56.019Z,50.17
2018-10-12T08:07:24.111Z,37.13
2018-10-12T08:09:52.350Z,41.50
2018-10-12T08:12:20.457Z,59.77
2018-10-12T08:14:48.599Z,44.67
2018-10-12T08:17:16.701Z,27.10
2018-10-12T08:19:44.775Z,34.73
2018-10-12T08:22:12.887Z,34.50
2018-10-12T08:24:40.992Z,29.70
2018-10-12T08:27:09.238Z,29.20
2018-10-12T08:29:37.212Z,30.83
2018-10-12T08:32:05.293Z,30.00
2018-10-12T08:34:33.424Z,30.73
2018-10-12T08:37:01.496Z,26.73
2018-10-12T08:39:29.600Z,30.17
2018-10-12T08:41:57.738Z,28.40
2018-10-12T08:44:25.807Z,22.63
2018-10-12T08:46:53.915Z,32.63
2018-10-12T08:49:22.038Z,25.47
2018-10-12T08:51:50.146Z,23.60
2018-10-12T08:54:18.271Z,32.17
2018-10-12T08:56:46.393Z,29.70
2018-10-12T08:59:14.491Z,28.93
2018-10-12T09:01:42.590Z,26.20
2018-10-12T09:04:10.713Z,31.83
2018-10-12T09:06:38.966Z,29.90
2018-10-12T09:09:09.954Z,31.53
2018-10-12T09:11:38.871Z,29.63
2018-10-12T09:14:07.134Z,22.63
2018-10-12T09:16:35.225Z,25.10
2018-10-12T09:19:03.483Z,35.30
2018-10-12T09:21:31.987Z,41.23
2018-10-12T09:24:00.094Z,32.00
2018-10-12T09:26:28.975Z,25.47
2018-10-12T09:28:57.053Z,41.53
2018-10-12T09:31:26.124Z,27.73
2018-10-12T09:33:54.255Z,32.97
2018-10-12T09:36:23.088Z,22.03
2018-10-12T09:38:51.171Z,18.20
2018-10-12T09:41:19.292Z,27.00
2018-10-12T09:43:47.374Z,25.80
2018-10-12T09:46:15.468Z,23.07
2018-10-12T09:48:43.559Z,16.40
2018-10-12T09:51:11.643Z,25.07
2018-10-12T09:53:39.767Z,17.40
2018-10-12T09:56:07.911Z,13.37
2018-10-12T09:58:36.044Z,12.87
2018-10-12T10:01:09.560Z,12.30
2018-10-12T10:03:43.046Z,14.57
2018-10-12T10:06:11.356Z,16.57
2018-10-12T10:08:39.517Z,10.23
2018-10-12T10:11:07.579Z,20.53
2018-10-12T10:13:35.664Z,16.77
2018-10-12T10:16:03.781Z,17.83
2018-10-12T10:18:31.847Z,20.57
2018-10-12T10:20:59.954Z,10.10
2018-10-12T10:23:28.058Z,10.50
2018-10-12T10:25:56.179Z,11.27
2018-10-12T10:28:24.269Z,11.37
2018-10-12T10:30:52.347Z,16.20
2018-10-12T10:33:20.427Z,13.97
2018-10-12T10:35:48.513Z,8.93
2018-10-12T10:38:16.606Z,10.00
2018-10-12T10:40:44.729Z,12.10
2018-10-12T10:43:13.082Z,14.93
2018-10-12T10:45:41.159Z,10.93
2018-10-12T10:48:09.248Z,12.50
2018-10-12T10:50:37.399Z,12.13
2018-10-12T10:53:05.490Z,18.53
2018-10-12T10:55:33.608Z,10.83
2018-10-12T10:58:01.715Z,9.20
2018-10-12T11:00:29.958Z,10.03
2018-10-12T11:02:58.039Z,7.47
2018-10-12T11:05:26.794Z,8.80
2018-10-12T11:07:54.886Z,7.70
2018-10-12T11:10:23.098Z,7.70
2018-10-12T11:12:51.272Z,8.70
2018-10-12T11:15:19.300Z,11.43
2018-10-12T11:17:47.608Z,17.47
2018-10-12T11:20:15.907Z,8.47
2018-10-12T11:22:44.008Z,18.10
2018-10-12T11:25:12.091Z,11.50
2018-10-12T11:27:40.319Z,16.40
2018-10-12T11:30:08.579Z,9.33
2018-10-12T11:32:36.757Z,11.37
2018-10-12T11:35:05.026Z,9.30
2018-10-12T11:37:33.137Z,9.33
2018-10-12T11:40:01.239Z,8.57
2018-10-12T11:43:39.628Z,11.43
2018-10-12T11:46:07.700Z,9.13
2018-10-12T11:48:35.799Z,8.10
2018-10-12T11:51:04.079Z,7.17
2018-10-12T11:53:32.157Z,16.80
2018-10-12T11:56:00.259Z,7.30
2018-10-12T11:58:28.424Z,4.13
2018-10-12T12:00:56.525Z,7.80
2018-10-12T12:03:24.947Z,11.23
2018-10-12T12:05:53.055Z,6.83
2018-10-12T12:08:21.140Z,6.93
2018-10-12T12:10:49.211Z,11.13
2018-10-12T12:13:17.367Z,5.53
2018-10-12T12:15:45.432Z,7.23
2018-10-12T12:18:13.499Z,8.80
2018-10-12T12:20:41.579Z,11.70
2018-10-12T12:23:09.670Z,8.67
2018-10-12T12:25:37.745Z,8.33
2018-10-12T12:28:05.884Z,8.67
2018-10-12T12:30:33.959Z,6.00
2018-10-12T12:33:02.192Z,11.53
2018-10-12T12:35:30.597Z,9.57
2018-10-12T12:38:00.084Z,8.20
2018-10-12T12:40:28.371Z,5.40
2018-10-12T12:42:56.694Z,9.13
2018-10-12T12:45:24.973Z,12.30
2018-10-12T12:47:54.183Z,6.40
2018-10-12T12:50:22.388Z,10.00
2018-10-12T12:52:50.475Z,6.70
2018-10-12T12:55:18.573Z,9.83
2018-10-12T12:57:46.670Z,4.90
2018-10-12T13:00:15.083Z,4.90
2018-10-12T13:02:43.078Z,5.23
2018-10-12T13:05:11.173Z,4.30
2018-10-12T13:07:39.427Z,5.40
2018-10-12T13:10:07.567Z,8.33
2018-10-12T13:12:35.728Z,4.40
2018-10-12T13:15:04.263Z,4.67
2018-10-12T13:17:32.358Z,7.53
2018-10-12T13:20:00.535Z,4.40
2018-10-12T13:22:28.603Z,6.27
2018-10-12T13:24:56.706Z,6.60
2018-10-12T13:27:26.860Z,4.43
2018-10-12T13:29:55.731Z,4.53
2018-10-12T13:32:35.823Z,6.50
2018-10-12T13:35:04.181Z,8.47
2018-10-12T13:37:32.297Z,4.60
2018-10-12T13:40:00.412Z,4.83
2018-10-12T13:42:28.501Z,11.90
2018-10-12T13:44:56.583Z,4.50
2018-10-12T13:47:24.714Z,5.93
2018-10-12T13:49:52.806Z,4.87
2018-10-12T13:52:20.913Z,8.93
2018-10-12T13:54:49.154Z,5.60
2018-10-12T13:57:17.400Z,11.10
2018-10-12T13:59:45.526Z,6.63
2018-10-12T14:02:13.606Z,21.47
2018-10-12T14:04:41.739Z,4.30
2018-10-12T14:07:09.834Z,7.70
2018-10-12T14:09:37.914Z,4.17
2018-10-12T14:12:05.988Z,4.00
2018-10-12T14:14:34.076Z,5.00
2018-10-12T14:17:02.195Z,10.87
2018-10-12T14:19:30.356Z,4.70
2018-10-12T14:22:03.117Z,7.53
2018-10-12T14:24:31.441Z,19.23
2018-10-12T14:26:59.715Z,20.53
2018-10-12T14:29:27.896Z,12.27
2018-10-12T14:31:55.983Z,7.23
2018-10-12T14:34:24.080Z,4.50
2018-10-12T14:36:52.146Z,5.40
2018-10-12T14:39:20.235Z,6.37
2018-10-12T14:41:48.355Z,7.80
2018-10-12T14:44:16.636Z,4.13
2018-10-12T14:46:44.550Z,8.03
2018-10-12T14:49:12.658Z,4.00
2018-10-12T14:51:40.816Z,4.03
2018-10-12T14:54:08.899Z,7.43
2018-10-12T14:56:36.990Z,5.40
2018-10-12T14:59:06.138Z,6.60
2018-10-12T15:01:34.154Z,8.27
2018-10-12T15:04:02.371Z,7.10
2018-10-12T15:06:30.463Z,5.57
2018-10-12T15:08:58.558Z,8.07
2018-10-12T15:11:27.489Z,5.23
2018-10-12T15:13:55.600Z,4.93
2018-10-12T15:16:23.674Z,4.53
2018-10-12T15:18:51.774Z,12.30
2018-10-12T15:21:20.015Z,7.43
2018-10-12T15:23:47.972Z,6.43
2018-10-12T15:26:16.069Z,7.20
2018-10-12T15:28:44.155Z,5.13
2018-10-12T15:31:12.247Z,7.40
2018-10-12T15:33:40.348Z,7.30
2018-10-12T15:36:08.478Z,3.50
2018-10-12T15:38:36.561Z,12.80
2018-10-12T15:41:04.655Z,5.20
2018-10-12T15:43:32.731Z,4.43
2018-10-12T15:46:00.823Z,7.93
2018-10-12T15:48:29.013Z,5.57
2018-10-12T15:50:57.115Z,7.23
2018-10-12T15:53:25.238Z,11.07
2018-10-12T15:55:53.539Z,5.53
2018-10-12T15:58:21.582Z,6.67
2018-10-12T16:00:49.659Z,5.07
2018-10-12T16:03:17.744Z,9.13
2018-10-12T16:05:46.464Z,8.30
2018-10-12T16:08:14.544Z,4.93
2018-10-12T16:10:42.631Z,10.87
2018-10-12T16:13:10.843Z,7.23
2018-10-12T16:15:38.933Z,12.00
2018-10-12T16:18:07.064Z,9.70
2018-10-12T16:20:35.135Z,6.50
2018-10-12T16:23:03.245Z,9.30
2018-10-12T16:25:53.187Z,8.37
2018-10-12T16:28:21.557Z,11.73
2018-10-12T16:30:49.861Z,10.93
2018-10-12T16:33:17.963Z,13.07
2018-10-12T16:35:46.283Z,24.00
2018-10-12T16:38:15.319Z,23.67
2018-10-12T16:40:44.029Z,17.27
2018-10-12T16:43:12.522Z,23.33
2018-10-12T16:45:40.655Z,16.83
2018-10-12T16:48:08.782Z,12.73
2018-10-12T16:50:36.903Z,27.67
2018-10-12T16:53:05.715Z,28.37
2018-10-12T16:55:33.862Z,38.27
2018-10-12T16:58:02.064Z,23.30
2018-10-12T17:00:30.117Z,20.30
2018-10-12T17:02:58.223Z,19.43
2018-10-12T17:05:26.960Z,28.07
2018-10-12T17:07:55.039Z,16.70
2018-10-12T17:10:23.164Z,11.53
2018-10-12T17:12:51.314Z,27.33
2018-10-12T17:15:19.418Z,19.80
2018-10-12T17:17:47.526Z,21.57
2018-10-12T17:20:15.774Z,13.17
2018-10-12T17:22:43.907Z,18.10
2018-10-12T17:25:12.071Z,16.93
2018-10-12T17:27:40.343Z,17.73
2018-10-12T17:30:08.484Z,16.87
2018-10-12T17:32:37.161Z,21.23
2018-10-12T17:35:05.638Z,14.70
2018-10-12T17:37:33.859Z,14.80
2018-10-12T17:40:01.973Z,24.67
2018-10-12T17:42:30.253Z,14.73
2018-10-12T17:44:58.367Z,19.23
2018-10-12T17:47:26.467Z,18.43
2018-10-12T17:49:55.065Z,23.77
2018-10-12T17:52:23.201Z,20.90
2018-10-12T17:54:51.288Z,23.43
2018-10-12T17:57:19.381Z,25.97
2018-10-12T17:59:47.803Z,20.63
2018-10-12T18:02:15.931Z,21.60
2018-10-12T18:04:44.053Z,14.93
2018-10-12T18:07:12.155Z,21.93
2018-10-12T18:09:40.259Z,17.73
2018-10-12T18:12:08.359Z,13.80
2018-10-12T18:14:36.511Z,28.17
2018-10-12T18:17:05.095Z,21.43
2018-10-12T18:19:34.243Z,25.00
2018-10-12T18:22:02.659Z,17.90
2018-10-12T18:24:30.763Z,12.90
2018-10-12T18:26:59.003Z,16.17
2018-10-12T18:29:27.330Z,15.47
2018-10-12T18:31:55.406Z,17.10
2018-10-12T18:34:23.514Z,16.00
2018-10-12T18:36:51.761Z,13.80
2018-10-12T18:39:19.840Z,21.07
2018-10-12T18:41:48.687Z,15.50
2018-10-12T18:44:19.292Z,15.67
2018-10-12T18:46:48.605Z,16.17
2018-10-12T18:49:18.489Z,13.73
2018-10-12T18:51:46.593Z,14.40
2018-10-12T18:54:14.947Z,19.33
2018-10-12T18:56:43.140Z,23.03
2018-10-12T18:59:11.275Z,13.03
2018-10-12T19:01:39.603Z,15.50
2018-10-12T19:04:07.803Z,21.20
2018-10-12T19:06:36.277Z,15.87
2018-10-12T19:09:06.485Z,13.83
2018-10-12T19:11:34.711Z,13.47
2018-10-12T19:14:03.134Z,20.00
2018-10-12T19:16:31.232Z,18.00
2018-10-12T19:18:59.330Z,12.53
2018-10-12T19:21:27.495Z,14.23
2018-10-12T19:23:55.720Z,21.43
2018-10-12T19:26:23.671Z,16.03
2018-10-12T19:28:51.785Z,15.37
2018-10-12T19:31:19.932Z,21.90
2018-10-12T19:33:48.569Z,17.37
2018-10-12T19:36:17.594Z,20.80
2018-10-12T19:38:45.694Z,14.13
2018-10-12T19:41:14.036Z,16.23
2018-10-12T19:43:42.193Z,13.83
2018-10-12T19:46:10.320Z,13.63
2018-10-12T19:48:38.395Z,13.53
2018-10-12T19:51:06.485Z,15.37
2018-10-12T19:53:35.572Z,12.67
2018-10-12T19:56:03.676Z,14.80
2018-10-12T19:58:31.764Z,12.80
2018-10-12T20:00:59.863Z,25.80
2018-10-12T20:03:27.940Z,14.40
2018-10-12T20:05:56.043Z,14.13
2018-10-12T20:08:25.091Z,20.30
2018-10-12T20:10:53.210Z,13.70
2018-10-12T20:13:21.319Z,20.97
2018-10-12T20:15:49.431Z,14.13
2018-10-12T20:18:17.539Z,13.23
2018-10-12T20:20:45.619Z,10.00
2018-10-12T20:23:13.787Z,14.20
2018-10-12T20:25:41.891Z,13.40
2018-10-12T20:28:10.020Z,24.23
2018-10-12T20:30:38.115Z,19.00
2018-10-12T20:33:06.263Z,21.03
2018-10-12T20:35:34.396Z,13.27
2018-10-12T20:38:02.555Z,17.63
2018-10-12T20:40:30.765Z,14.60
2018-10-12T20:42:58.878Z,14.30
2018-10-12T20:45:27.000Z,22.33
2018-10-12T20:47:55.104Z,15.97
2018-10-12T20:50:23.372Z,14.40
2018-10-12T20:52:51.496Z,12.87
2018-10-12T20:55:19.853Z,16.20
2018-10-12T20:57:50.027Z,23.43
2018-10-12T21:00:19.029Z,15.93
2018-10-12T21:02:47.157Z,12.37
2018-10-12T21:05:15.272Z,22.40
2018-10-12T21:07:44.244Z,12.00
2018-10-12T21:10:12.331Z,19.40
2018-10-12T21:12:40.418Z,25.57
2018-10-12T21:15:08.975Z,15.83
2018-10-12T21:17:37.284Z,17.77
2018-10-12T21:20:05.666Z,17.37
2018-10-12T21:22:33.846Z,14.13
2018-10-12T21:25:02.044Z,16.00
2018-10-12T21:27:30.122Z,16.03
2018-10-12T21:29:58.394Z,19.73
2018-10-12T21:32:26.510Z,11.77
2018-10-12T21:34:54.600Z,12.73
2018-10-12T21:37:22.746Z,17.37
2018-10-12T21:39:50.840Z,16.00
2018-10-12T21:42:18.967Z,12.33
2018-10-12T21:44:47.198Z,14.93
2018-10-12T21:47:15.281Z,13.63
2018-10-12T21:49:43.575Z,14.70
2018-10-12T21:52:11.838Z,11.93
2018-10-12T21:54:40.215Z,12.53
2018-10-12T21:57:08.330Z,23.27
2018-10-12T21:59:36.432Z,13.37
2018-10-12T22:02:04.938Z,20.40
2018-10-12T22:04:33.051Z,17.27
2018-10-12T22:07:01.142Z,16.90
2018-10-12T22:09:29.260Z,19.47
2018-10-12T22:11:57.353Z,14.50
2018-10-12T22:14:25.476Z,16.87
2018-10-12T22:16:53.746Z,20.27
2018-10-12T22:19:21.883Z,14.87
2018-10-12T22:21:49.902Z,20.40
2018-10-12T22:24:18.179Z,14.23
2018-10-12T22:26:46.485Z,13.30
2018-10-12T22:29:14.572Z,14.63
2018-10-12T22:31:42.633Z,13.80
2018-10-12T22:34:10.711Z,14.23
2018-10-12T22:36:38.802Z,15.37
2018-10-12T22:39:08.281Z,28.63
2018-10-12T22:41:36.399Z,14.13
2018-10-12T22:44:04.494Z,15.63
2018-10-12T22:46:33.165Z,16.50
2018-10-12T22:49:01.271Z,27.73
2018-10-12T22:51:29.441Z,14.20
2018-10-12T22:53:57.719Z,19.00
2018-10-12T22:56:25.806Z,13.43
2018-10-12T22:58:53.903Z,18.30
2018-10-12T23:01:21.998Z,16.63
2018-10-12T23:03:50.070Z,16.67
2018-10-12T23:06:18.283Z,9.87
2018-10-12T23:08:46.385Z,14.33
2018-10-12T23:11:14.476Z,14.17
2018-10-12T23:13:42.595Z,14.50
2018-10-12T23:16:10.704Z,12.90
2018-10-12T23:18:38.800Z,15.43
2018-10-12T23:21:07.110Z,16.73
2018-10-12T23:23:35.188Z,10.77
2018-10-12T23:26:03.459Z,13.50
2018-10-12T23:28:31.580Z,13.60
2018-10-12T23:30:59.662Z,14.87
2018-10-12T23:33:39.066Z,16.00
2018-10-12T23:36:07.243Z,18.30
2018-10-12T23:38:35.338Z,10.93
2018-10-12T23:41:03.433Z,16.63
2018-10-12T23:43:31.545Z,12.47
2018-10-12T23:45:59.646Z,11.60
2018-10-12T23:48:27.763Z,12.93
2018-10-12T23:50:55.841Z,14.67
2018-10-12T23:53:23.923Z,12.37
2018-10-12T23:55:52.078Z,10.40
2018-10-12T23:58:20.158Z,16.57
